Time;durP1;ratioP1;P1;durP2;ratioP2;P2;SDS_P1;SDS_P2;PMS_P1;PMS_P2;Temp;Humidity;BMP_temperature;BMP_pressure;BME280_temperature;BME280_humidity;BME280_pressure;Samples;Min_cycle;Max_cycle;Signal;HPM_P1;HPM_P2
2023/07/13 00:01:15;;;;;;;1.30;0.70;;;28.70;42.30;;;;;;5017838;28;20540;-74
2023/07/13 00:03:46;;;;;;;1.27;0.83;;;28.70;42.40;;;;;;5018543;28;20465;-74
2023/07/13 00:06:15;;;;;;;1.57;1.00;;;28.70;42.20;;;;;;5006927;28;20500;-74
2023/07/13 00:08:43;;;;;;;1.13;0.80;;;28.70;42.30;;;;;;5018827;28;20527;-73
2023/07/13 00:11:12;;;;;;;1.20;1.10;;;28.70;42.20;;;;;;5014460;28;20445;-74
2023/07/13 00:13:40;;;;;;;1.23;1.13;;;28.70;42.30;;;;;;5024355;28;20468;-74
2023/07/13 00:16:10;;;;;;;1.30;1.10;;;28.70;42.30;;;;;;5008414;28;20510;-74
2023/07/13 00:18:39;;;;;;;1.17;0.90;;;28.70;42.40;;;;;;5003694;28;20461;-74
2023/07/13 00:21:09;;;;;;;0.80;0.80;;;28.70;42.20;;;;;;5007847;28;20453;-74
2023/07/13 00:23:39;;;;;;;1.50;1.07;;;28.70;42.30;;;;;;5005734;28;20477;-74
2023/07/13 00:26:09;;;;;;;1.50;0.80;;;28.70;42.40;;;;;;5010505;28;20515;-74
2023/07/13 00:28:41;;;;;;;1.43;0.83;;;28.70;42.40;;;;;;5013149;28;20531;-74
2023/07/13 00:31:11;;;;;;;1.70;0.93;;;28.70;42.30;;;;;;5001500;28;20465;-74
2023/07/13 00:33:40;;;;;;;1.50;1.10;;;28.70;42.40;;;;;;5011631;28;20853;-74
2023/07/13 00:36:10;;;;;;;1.97;0.80;;;28.70;42.30;;;;;;5006110;28;20529;-74
2023/07/13 00:38:39;;;;;;;1.40;1.20;;;28.70;42.10;;;;;;5012597;28;21109;-74
2023/07/13 00:41:09;;;;;;;1.73;1.00;;;28.70;42.40;;;;;;5009574;28;20444;-74
2023/07/13 00:43:37;;;;;;;1.00;0.83;;;28.60;42.40;;;;;;5010187;28;20469;-74
2023/07/13 00:46:21;;;;;;;1.33;1.00;;;28.60;42.60;;;;;;5009949;28;20428;-74
2023/07/13 00:48:50;;;;;;;0.90;0.80;;;28.60;42.40;;;;;;5008156;28;20891;-73
2023/07/13 00:51:25;;;;;;;1.93;1.40;;;28.60;41.80;;;;;;5006595;28;20433;-74
2023/07/13 00:53:57;;;;;;;1.27;1.17;;;28.60;42.10;;;;;;5013400;28;20880;-74
2023/07/13 00:56:25;;;;;;;0.87;0.60;;;28.60;42.30;;;;;;5005874;28;20430;-74
2023/07/13 00:58:54;;;;;;;1.27;0.90;;;28.60;42.50;;;;;;5016490;28;20468;-74
2023/07/13 01:01:23;;;;;;;1.63;0.93;;;28.60;42.50;;;;;;5007432;28;20949;-74
2023/07/13 01:03:52;;;;;;;0.90;0.70;;;28.60;42.50;;;;;;5003759;28;20469;-74
2023/07/13 01:06:22;;;;;;;2.70;1.00;;;28.60;42.50;;;;;;4999750;28;20446;-74
2023/07/13 01:08:50;;;;;;;1.10;1.00;;;28.60;42.40;;;;;;5009260;28;20543;-74
2023/07/13 01:11:21;;;;;;;1.00;0.80;;;28.60;42.50;;;;;;5004316;28;20445;-74
2023/07/13 01:13:51;;;;;;;1.80;0.97;;;28.60;42.50;;;;;;4998293;28;20841;-74
2023/07/13 01:16:25;;;;;;;1.20;1.10;;;28.60;42.50;;;;;;5011814;28;20462;-74
2023/07/13 01:18:54;;;;;;;0.93;0.73;;;28.60;42.50;;;;;;5004215;28;20476;-74
2023/07/13 01:21:26;;;;;;;1.13;0.87;;;28.50;42.50;;;;;;5008250;28;20928;-74
2023/07/13 01:23:55;;;;;;;1.20;0.80;;;28.60;42.60;;;;;;5011189;28;20554;-74
2023/07/13 01:26:23;;;;;;;1.00;0.93;;;28.50;41.90;;;;;;5005955;28;20464;-74
2023/07/13 01:28:52;;;;;;;1.33;0.97;;;28.50;42.40;;;;;;5004654;28;20548;-73
2023/07/13 01:31:20;;;;;;;1.10;0.80;;;28.50;42.50;;;;;;5006018;28;20434;-74
2023/07/13 01:33:49;;;;;;;1.10;0.80;;;28.50;42.60;;;;;;5005806;28;20484;-74
2023/07/13 01:36:17;;;;;;;1.10;0.87;;;28.50;42.70;;;;;;5010913;28;20428;-74
2023/07/13 01:38:47;;;;;;;1.10;0.80;;;28.50;42.20;;;;;;5005935;28;20925;-74
2023/07/13 01:41:15;;;;;;;2.00;0.93;;;28.50;42.50;;;;;;5005011;28;20473;-74
2023/07/13 01:43:43;;;;;;;1.50;1.07;;;28.50;42.50;;;;;;5003632;28;20561;-74
2023/07/13 01:46:12;;;;;;;1.27;0.90;;;28.50;42.10;;;;;;5003834;28;20480;-73
2023/07/13 01:48:51;;;;;;;1.53;1.13;;;28.50;42.30;;;;;;5013641;28;21114;-74
2023/07/13 01:51:21;;;;;;;1.37;0.90;;;28.40;42.00;;;;;;5006098;28;20538;-74
2023/07/13 01:53:51;;;;;;;1.80;0.90;;;28.40;42.30;;;;;;5003374;28;20480;-74
2023/07/13 01:56:19;;;;;;;1.67;0.90;;;28.40;42.20;;;;;;5005200;28;20504;-74
2023/07/13 01:58:48;;;;;;;1.50;0.90;;;28.40;42.50;;;;;;5005978;28;20480;-74
2023/07/13 02:01:17;;;;;;;1.60;0.97;;;28.40;42.50;;;;;;5009761;28;20439;-74
2023/07/13 02:03:46;;;;;;;1.70;0.83;;;28.40;42.60;;;;;;5011159;28;20594;-74
2023/07/13 02:06:15;;;;;;;2.00;0.60;;;28.40;42.70;;;;;;5007756;28;20883;-74
2023/07/13 02:08:43;;;;;;;3.37;0.90;;;28.40;42.60;;;;;;5006805;28;20480;-73
2023/07/13 02:11:13;;;;;;;1.33;1.20;;;28.30;42.50;;;;;;5028141;28;20482;-73
2023/07/13 02:13:42;;;;;;;1.20;0.90;;;28.40;42.30;;;;;;5011145;28;20908;-73
2023/07/13 02:16:10;;;;;;;0.93;0.90;;;28.30;43.70;;;;;;5018345;28;20445;-74
2023/07/13 02:18:39;;;;;;;1.53;1.00;;;28.30;42.60;;;;;;5000861;28;20470;-74
2023/07/13 02:21:08;;;;;;;1.13;1.03;;;28.30;42.70;;;;;;5000176;28;20437;-74
2023/07/13 02:23:36;;;;;;;2.77;1.00;;;28.40;42.60;;;;;;5008462;28;20568;-73
2023/07/13 02:26:05;;;;;;;0.80;0.70;;;28.30;42.50;;;;;;5007567;28;20452;-74
2023/07/13 02:28:35;;;;;;;1.00;0.77;;;28.30;42.50;;;;;;5015081;28;21020;-74
2023/07/13 02:31:08;;;;;;;1.37;0.93;;;28.30;42.30;;;;;;4991708;28;20920;-74
2023/07/13 02:33:37;;;;;;;1.10;0.90;;;28.30;42.20;;;;;;4999798;28;20524;-74
2023/07/13 02:36:06;;;;;;;1.93;1.17;;;28.30;42.60;;;;;;5010497;28;20455;-73
2023/07/13 02:38:35;;;;;;;1.53;1.00;;;28.30;42.40;;;;;;5010087;28;20500;-74
2023/07/13 02:41:04;;;;;;;1.30;0.90;;;28.30;42.60;;;;;;5010572;28;20972;-74
2023/07/13 02:43:33;;;;;;;0.80;0.70;;;28.30;42.70;;;;;;5008784;28;20474;-73
2023/07/13 02:46:07;;;;;;;1.00;0.90;;;28.30;42.70;;;;;;5011538;28;20483;-74
2023/07/13 02:48:38;;;;;;;1.30;1.00;;;28.20;42.40;;;;;;5010182;28;20534;-73
2023/07/13 02:51:07;;;;;;;1.27;0.97;;;28.20;42.70;;;;;;5012166;28;20484;-74
2023/07/13 02:53:36;;;;;;;1.10;0.80;;;28.20;42.70;;;;;;5016022;28;20481;-74
2023/07/13 02:56:06;;;;;;;2.10;0.90;;;28.20;42.70;;;;;;5005848;28;20489;-74
2023/07/13 02:58:36;;;;;;;1.53;1.10;;;28.20;42.60;;;;;;5014975;28;20501;-74
2023/07/13 03:01:10;;;;;;;1.07;0.90;;;28.20;42.70;;;;;;5013392;28;20495;-73
2023/07/13 03:03:39;;;;;;;1.33;0.80;;;28.20;42.70;;;;;;5009153;28;20476;-74
2023/07/13 03:06:08;;;;;;;1.10;1.00;;;28.20;42.70;;;;;;5012370;28;21048;-73
2023/07/13 03:08:46;;;;;;;0.83;0.77;;;28.20;42.70;;;;;;5010606;28;20485;-74
2023/07/13 03:11:18;;;;;;;1.37;1.00;;;28.20;42.70;;;;;;5016191;28;20468;-74
2023/07/13 03:13:51;;;;;;;1.10;0.90;;;28.20;42.80;;;;;;5009182;28;21023;-73
2023/07/13 03:16:22;;;;;;;1.10;0.70;;;28.20;42.60;;;;;;5008711;28;20930;-74
2023/07/13 03:18:53;;;;;;;0.80;0.70;;;28.10;42.70;;;;;;5016707;28;20472;-74
2023/07/13 03:21:21;;;;;;;1.60;1.10;;;28.10;42.70;;;;;;5016517;28;20445;-74
2023/07/13 03:23:50;;;;;;;1.07;0.97;;;28.10;42.90;;;;;;5003800;28;20473;-74
2023/07/13 03:26:21;;;;;;;1.70;1.10;;;28.10;43.50;;;;;;5007647;28;20536;-74
2023/07/13 03:28:50;;;;;;;1.53;0.90;;;28.10;42.60;;;;;;5008323;28;20531;-74
2023/07/13 03:31:26;;;;;;;1.53;1.10;;;28.10;42.80;;;;;;5010448;28;20457;-74
2023/07/13 03:33:55;;;;;;;1.40;0.80;;;28.10;42.90;;;;;;5002718;28;20567;-74
2023/07/13 03:36:26;;;;;;;1.23;0.97;;;28.10;42.90;;;;;;5015167;28;20441;-73
2023/07/13 03:39:00;;;;;;;1.40;0.93;;;28.10;42.80;;;;;;5012580;28;20480;-74
2023/07/13 03:41:36;;;;;;;1.10;0.80;;;28.10;43.10;;;;;;5014751;28;20803;-73
2023/07/13 03:44:05;;;;;;;1.63;1.00;;;28.00;43.20;;;;;;5015862;28;20477;-74
2023/07/13 03:46:35;;;;;;;0.80;0.80;;;28.00;42.70;;;;;;5005938;28;20453;-73
2023/07/13 03:49:05;;;;;;;0.80;0.73;;;28.00;43.30;;;;;;5008158;28;20488;-74
2023/07/13 03:51:34;;;;;;;1.70;0.90;;;28.00;43.20;;;;;;5007217;28;20475;-73
2023/07/13 03:54:03;;;;;;;1.07;0.87;;;28.00;44.40;;;;;;5008621;28;21012;-74
2023/07/13 03:56:32;;;;;;;1.50;1.03;;;28.00;42.90;;;;;;5005915;28;20528;-74
2023/07/13 03:59:03;;;;;;;0.93;0.73;;;28.00;43.20;;;;;;5017619;28;20463;-73
2023/07/13 04:01:33;;;;;;;1.10;0.80;;;27.90;44.50;;;;;;5004610;28;20437;-74
2023/07/13 04:04:02;;;;;;;1.50;1.00;;;28.00;43.30;;;;;;5007219;28;20469;-74
2023/07/13 04:06:32;;;;;;;0.93;0.80;;;27.90;42.90;;;;;;5000547;28;20514;-74
2023/07/13 04:09:05;;;;;;;1.10;0.90;;;28.00;43.20;;;;;;4990014;28;20909;-73
2023/07/13 04:11:36;;;;;;;1.20;1.00;;;27.90;43.10;;;;;;5005811;28;20480;-74
2023/07/13 04:14:05;;;;;;;1.30;0.80;;;27.90;43.30;;;;;;5006608;28;20497;-74
2023/07/13 04:16:36;;;;;;;1.67;0.93;;;27.90;43.30;;;;;;5007007;28;20484;-73
2023/07/13 04:19:05;;;;;;;1.50;1.03;;;27.90;43.10;;;;;;5019168;28;20851;-73
2023/07/13 04:21:33;;;;;;;0.93;0.83;;;27.90;43.30;;;;;;5008334;28;20429;-73
2023/07/13 04:24:02;;;;;;;3.50;1.10;;;27.90;43.40;;;;;;5013356;28;20480;-74
2023/07/13 04:26:31;;;;;;;1.10;0.80;;;27.90;42.90;;;;;;5013907;28;20440;-74
2023/07/13 04:29:00;;;;;;;1.53;0.70;;;27.90;43.40;;;;;;5009841;28;20492;-74
2023/07/13 04:31:28;;;;;;;1.63;1.00;;;27.90;43.50;;;;;;5009397;28;20471;-74
2023/07/13 04:33:58;;;;;;;1.30;0.90;;;27.80;43.50;;;;;;5021736;28;20463;-74
2023/07/13 04:36:27;;;;;;;1.83;1.00;;;27.80;43.50;;;;;;5013135;28;20444;-73
2023/07/13 04:38:55;;;;;;;1.80;0.90;;;27.80;43.50;;;;;;5008269;28;20505;-74
2023/07/13 04:41:24;;;;;;;1.70;0.90;;;27.80;43.30;;;;;;5006923;28;20444;-74
2023/07/13 04:43:52;;;;;;;1.87;0.80;;;27.80;43.20;;;;;;5005739;28;20470;-74
2023/07/13 04:46:24;;;;;;;1.83;0.93;;;27.80;43.40;;;;;;5007285;28;20867;-74
2023/07/13 04:48:53;;;;;;;1.73;0.87;;;27.80;43.50;;;;;;5002589;28;20824;-73
2023/07/13 04:51:23;;;;;;;2.33;1.03;;;27.80;43.30;;;;;;5013905;28;20454;-74
2023/07/13 04:53:51;;;;;;;1.43;1.10;;;27.80;43.10;;;;;;5011216;28;20477;-74
2023/07/13 04:56:26;;;;;;;1.10;1.00;;;27.70;43.50;;;;;;5006871;28;20479;-74
2023/07/13 04:58:54;;;;;;;1.03;0.90;;;27.70;43.40;;;;;;5005042;28;20555;-74
2023/07/13 05:01:22;;;;;;;1.43;0.87;;;27.70;43.30;;;;;;5006081;28;20437;-74
2023/07/13 05:03:51;;;;;;;1.23;0.90;;;27.70;43.30;;;;;;5003810;28;20472;-74
2023/07/13 05:06:19;;;;;;;2.10;0.90;;;27.60;43.30;;;;;;5005110;28;20572;-74
2023/07/13 05:08:49;;;;;;;1.63;1.20;;;27.70;43.50;;;;;;5002268;28;20483;-73
2023/07/13 05:11:19;;;;;;;1.27;1.17;;;27.70;43.60;;;;;;5007571;28;20472;-73
2023/07/13 05:13:48;;;;;;;2.13;1.00;;;27.60;43.50;;;;;;4989568;28;20464;-74
2023/07/13 05:16:16;;;;;;;1.47;1.10;;;27.70;43.40;;;;;;5003137;28;20503;-74
2023/07/13 05:18:44;;;;;;;3.00;0.97;;;27.60;43.50;;;;;;5006166;28;20473;-74
2023/07/13 05:21:13;;;;;;;1.10;1.00;;;27.60;43.50;;;;;;5016064;28;20573;-74
2023/07/13 05:23:42;;;;;;;1.20;0.93;;;27.60;43.60;;;;;;5003866;28;20544;-74
2023/07/13 05:26:12;;;;;;;1.67;1.20;;;27.60;43.50;;;;;;5000381;28;20471;-74
2023/07/13 05:28:42;;;;;;;1.17;0.90;;;27.60;43.60;;;;;;5006920;28;20527;-74
2023/07/13 05:31:11;;;;;;;1.60;0.90;;;27.60;43.90;;;;;;5011061;28;20521;-74
2023/07/13 05:33:40;;;;;;;1.03;0.83;;;27.60;43.80;;;;;;5006680;28;20465;-74
2023/07/13 05:36:09;;;;;;;3.20;1.40;;;27.60;43.50;;;;;;5003843;28;20433;-74
2023/07/13 05:38:38;;;;;;;1.97;1.13;;;27.60;43.60;;;;;;4998876;28;20555;-74
2023/07/13 05:41:06;;;;;;;2.27;1.03;;;27.60;43.50;;;;;;5022791;28;20448;-74
2023/07/13 05:43:36;;;;;;;1.57;1.00;;;27.60;43.50;;;;;;5015895;28;21146;-74
2023/07/13 05:46:04;;;;;;;1.73;1.07;;;27.60;43.60;;;;;;5004264;28;20457;-74
2023/07/13 05:48:32;;;;;;;3.40;1.07;;;27.60;43.50;;;;;;5003779;28;20461;-74
2023/07/13 05:51:02;;;;;;;1.00;0.73;;;27.60;43.70;;;;;;5003820;28;20468;-74
2023/07/13 05:53:31;;;;;;;1.10;0.87;;;27.60;43.60;;;;;;5003129;28;20487;-74
2023/07/13 05:55:59;;;;;;;1.77;1.13;;;27.60;43.60;;;;;;5013215;28;20952;-74
2023/07/13 05:58:30;;;;;;;1.70;1.10;;;27.60;43.50;;;;;;5000052;28;20473;-74
2023/07/13 06:01:06;;;;;;;1.80;0.90;;;27.60;43.70;;;;;;5008828;28;20449;-74
2023/07/13 06:03:35;;;;;;;2.93;1.30;;;27.60;43.50;;;;;;5013969;28;20525;-74
2023/07/13 06:06:03;;;;;;;2.20;1.10;;;27.60;43.50;;;;;;5016872;28;20539;-74
2023/07/13 06:08:32;;;;;;;2.10;1.07;;;27.50;43.40;;;;;;5010675;28;20994;-74
2023/07/13 06:11:05;;;;;;;1.57;1.13;;;27.60;43.50;;;;;;5014285;28;20437;-74
2023/07/13 06:13:34;;;;;;;2.73;1.13;;;27.50;43.60;;;;;;5000431;28;20470;-74
2023/07/13 06:16:05;;;;;;;1.73;1.00;;;27.50;43.70;;;;;;5004827;28;20446;-74
2023/07/13 06:18:34;;;;;;;2.10;1.00;;;27.50;43.50;;;;;;5005157;28;20491;-74
2023/07/13 06:21:06;;;;;;;1.77;1.17;;;27.50;44.00;;;;;;5009881;28;20523;-68
2023/07/13 06:23:34;;;;;;;2.00;1.17;;;27.50;43.80;;;;;;5007750;28;20472;-68
2023/07/13 06:26:03;;;;;;;1.87;1.10;;;27.50;43.70;;;;;;5011283;28;20483;-68
2023/07/13 06:28:35;;;;;;;2.50;0.83;;;27.50;43.70;;;;;;5017804;28;20898;-67
2023/07/13 06:31:08;;;;;;;1.40;1.10;;;27.50;43.50;;;;;;5018660;28;20421;-68
2023/07/13 06:33:38;;;;;;;2.70;1.10;;;27.50;43.90;;;;;;5015816;28;20481;-68
2023/07/13 06:36:09;;;;;;;1.67;1.20;;;27.50;43.90;;;;;;5010787;28;20421;-68
2023/07/13 06:38:37;;;;;;;2.10;1.37;;;27.40;43.50;;;;;;5015942;28;20480;-68
2023/07/13 06:41:06;;;;;;;1.23;1.10;;;27.40;44.00;;;;;;5015460;28;20443;-68
2023/07/13 06:43:35;;;;;;;2.00;0.90;;;27.40;43.90;;;;;;5014508;28;20476;-68
2023/07/13 06:46:04;;;;;;;1.63;1.30;;;27.40;44.00;;;;;;5003365;28;20446;-67
2023/07/13 06:48:33;;;;;;;1.27;0.90;;;27.40;43.60;;;;;;5000711;28;21074;-68
2023/07/13 06:51:03;;;;;;;2.17;1.30;;;27.40;44.10;;;;;;5001121;28;20449;-68
2023/07/13 06:53:31;;;;;;;2.90;1.20;;;27.40;43.90;;;;;;5013691;28;20591;-68
2023/07/13 06:56:00;;;;;;;1.43;1.20;;;27.40;43.80;;;;;;5010607;28;20927;-67
2023/07/13 06:58:28;;;;;;;3.20;1.50;;;27.40;43.70;;;;;;5014821;28;20472;-68
2023/07/13 07:00:57;;;;;;;1.83;1.27;;;27.40;43.60;;;;;;5011183;28;20498;-68
2023/07/13 07:03:25;;;;;;;2.77;1.47;;;27.40;43.90;;;;;;5007283;28;20473;-68
2023/07/13 07:06:00;;;;;;;1.70;1.03;;;27.40;43.90;;;;;;5009822;28;20452;-67
2023/07/13 07:08:28;;;;;;;3.10;1.50;;;27.30;43.90;;;;;;5003397;28;20484;-68
2023/07/13 07:10:57;;;;;;;1.83;1.10;;;27.30;43.70;;;;;;5010163;28;20469;-68
2023/07/13 07:13:25;;;;;;;1.43;0.97;;;27.30;43.90;;;;;;5010906;28;21081;-67
2023/07/13 07:15:53;;;;;;;2.47;1.40;;;27.30;43.90;;;;;;5009925;28;20448;-68
2023/07/13 07:18:22;;;;;;;3.50;1.73;;;27.30;44.20;;;;;;5006542;28;21007;-68
2023/07/13 07:20:50;;;;;;;2.10;1.00;;;27.30;44.20;;;;;;5009472;28;20947;-68
2023/07/13 07:23:20;;;;;;;1.70;1.37;;;27.30;43.80;;;;;;5009943;28;20800;-67
2023/07/13 07:25:48;;;;;;;1.43;1.33;;;27.30;43.90;;;;;;5006934;28;20531;-68
2023/07/13 07:28:18;;;;;;;1.60;1.37;;;27.30;43.70;;;;;;5009024;28;20563;-67
2023/07/13 07:30:55;;;;;;;1.73;1.03;;;27.30;43.90;;;;;;5009878;28;20498;-70
2023/07/13 07:33:26;;;;;;;4.27;2.10;;;27.30;44.50;;;;;;5017337;28;20479;-70
2023/07/13 07:35:55;;;;;;;2.60;2.07;;;27.30;39.20;;;;;;5006951;28;20443;-70
2023/07/13 07:38:27;;;;;;;3.58;1.90;;;27.00;37.50;;;;;;4999230;28;20855;-69
2023/07/13 07:40:56;;;;;;;4.03;2.47;;;26.30;40.20;;;;;;5008387;28;20193;-66
2023/07/13 07:43:27;;;;;;;4.57;2.60;;;26.30;41.20;;;;;;5007757;28;20459;-66
2023/07/13 07:45:55;;;;;;;4.93;1.97;;;26.40;41.80;;;;;;5024580;28;20518;-66
2023/07/13 07:48:24;;;;;;;4.10;2.30;;;26.50;43.30;;;;;;5006342;28;20545;-66
2023/07/13 07:50:52;;;;;;;4.87;2.03;;;26.60;41.90;;;;;;5008642;28;21117;-66
2023/07/13 07:53:21;;;;;;;4.40;2.00;;;26.70;41.90;;;;;;5015631;28;20914;-65
2023/07/13 07:55:51;;;;;;;3.10;2.13;;;26.70;41.60;;;;;;5018085;28;20588;-66
2023/07/13 07:58:23;;;;;;;2.00;1.60;;;26.80;42.00;;;;;;5007515;28;20483;-66
2023/07/13 08:00:54;;;;;;;2.87;1.90;;;26.80;41.80;;;;;;5001028;28;20569;-66
2023/07/13 08:03:25;;;;;;;5.03;1.93;;;26.80;41.80;;;;;;5011754;28;20491;-66
2023/07/13 08:05:57;;;;;;;4.27;2.00;;;26.90;42.10;;;;;;5016182;28;20888;-66
2023/07/13 08:08:45;;;;;;;2.30;1.70;;;26.90;41.80;;;;;;5007736;28;20562;-66
2023/07/13 08:11:15;;;;;;;2.40;2.00;;;26.90;41.90;;;;;;4999101;28;20448;-72
2023/07/13 08:13:46;;;;;;;2.70;1.67;;;26.90;41.90;;;;;;5015354;28;20561;-73
2023/07/13 08:16:16;;;;;;;1.70;1.60;;;27.00;42.10;;;;;;4999086;28;20808;-72
2023/07/13 08:18:44;;;;;;;3.63;1.60;;;27.00;42.10;;;;;;5009017;28;20555;-73
2023/07/13 08:21:16;;;;;;;2.47;1.50;;;27.00;42.00;;;;;;5008833;28;20487;-72
2023/07/13 08:23:44;;;;;;;3.47;1.73;;;26.90;42.00;;;;;;5004656;28;20515;-73
2023/07/13 08:26:12;;;;;;;2.17;1.40;;;27.00;42.00;;;;;;5015889;28;20506;-73
2023/07/13 08:28:43;;;;;;;6.40;2.07;;;27.00;42.10;;;;;;5007821;28;20519;-72
2023/07/13 08:31:11;;;;;;;2.53;1.70;;;27.00;41.90;;;;;;5007269;28;20507;-72
2023/07/13 08:33:40;;;;;;;3.23;1.67;;;26.90;42.20;;;;;;5003434;28;20513;-73
2023/07/13 08:36:09;;;;;;;1.70;1.30;;;27.00;42.20;;;;;;5022983;28;20456;-72
2023/07/13 08:38:37;;;;;;;2.23;1.60;;;27.00;42.20;;;;;;5008500;28;20495;-75
2023/07/13 08:41:13;;;;;;;2.67;1.57;;;27.00;42.20;;;;;;5023294;28;20491;-74
2023/07/13 08:43:48;;;;;;;4.70;2.20;;;27.00;42.60;;;;;;5028032;28;20470;-71
2023/07/13 08:46:21;;;;;;;5.63;2.03;;;26.90;38.80;;;;;;4997418;28;20534;-75
2023/07/13 08:48:53;;;;;;;3.93;2.37;;;26.60;38.90;;;;;;5007223;28;20480;-73
2023/07/13 08:51:32;;;;;;;5.03;1.60;;;26.10;40.00;;;;;;5001234;28;20443;-74
2023/07/13 08:54:02;;;;;;;2.43;1.80;;;25.90;40.80;;;;;;5003808;28;20827;-74
2023/07/13 08:56:33;;;;;;;2.77;1.60;;;25.90;41.40;;;;;;5015626;28;20500;-74
2023/07/13 08:59:10;;;;;;;4.57;1.77;;;26.10;41.70;;;;;;5006914;28;20473;-74
2023/07/13 09:01:54;;;;;;;3.57;1.50;;;26.20;41.70;;;;;;5005667;28;20447;-74
2023/07/13 09:04:27;;;;;;;3.40;1.47;;;26.30;41.60;;;;;;5002113;28;20468;-68
2023/07/13 09:07:08;;;;;;;2.33;1.53;;;26.30;41.50;;;;;;5004480;28;20444;-66
2023/07/13 09:09:48;;;;;;;2.40;1.83;;;26.40;41.50;;;;;;5005983;28;20509;-66
2023/07/13 09:12:22;;;;;;;1.87;1.17;;;26.50;41.40;;;;;;4993600;28;20459;-69
2023/07/13 09:14:55;;;;;;;4.53;2.20;;;26.50;41.50;;;;;;5010141;28;20479;-67
2023/07/13 09:17:28;;;;;;;4.00;2.03;;;26.50;41.50;;;;;;5003793;28;20452;-68
2023/07/13 09:20:04;;;;;;;3.53;1.77;;;26.60;41.30;;;;;;5000278;28;20479;-68
2023/07/13 09:22:37;;;;;;;3.23;1.83;;;26.60;41.40;;;;;;5001165;28;21016;-66
2023/07/13 09:25:14;;;;;;;2.70;1.50;;;26.60;41.30;;;;;;5001387;28;20540;-66
2023/07/13 09:27:45;;;;;;;3.30;1.80;;;26.60;41.30;;;;;;5004895;28;20447;-66
2023/07/13 09:30:28;;;;;;;3.13;1.80;;;26.70;41.00;;;;;;5003877;28;20454;-66
2023/07/13 09:32:58;;;;;;;2.30;1.47;;;26.70;40.80;;;;;;5017252;28;20473;-68
2023/07/13 09:35:29;;;;;;;4.23;1.70;;;26.70;41.10;;;;;;5001400;28;20940;-68
2023/07/13 09:38:11;;;;;;;3.00;1.77;;;26.70;41.10;;;;;;5015331;28;20495;-66
2023/07/13 09:40:58;;;;;;;2.60;1.47;;;26.70;40.60;;;;;;4998695;28;20964;-66
2023/07/13 09:43:28;;;;;;;2.73;1.60;;;26.70;40.50;;;;;;4998824;28;20505;-67
2023/07/13 09:45:59;;;;;;;3.70;2.13;;;26.70;40.60;;;;;;5003687;28;20441;-68
2023/07/13 09:48:35;;;;;;;2.83;1.70;;;26.70;41.10;;;;;;4997138;28;20479;-68
2023/07/13 09:51:13;;;;;;;3.60;1.80;;;26.70;41.00;;;;;;4995581;28;20594;-66
2023/07/13 09:53:43;;;;;;;2.03;1.37;;;26.70;40.70;;;;;;4998120;28;21054;-68
2023/07/13 09:56:21;;;;;;;2.67;1.50;;;26.70;40.60;;;;;;5000331;28;20456;-66
2023/07/13 09:58:50;;;;;;;2.07;1.00;;;26.70;41.10;;;;;;4998113;28;20484;-68
2023/07/13 10:01:33;;;;;;;2.47;1.40;;;26.70;41.10;;;;;;5000441;28;20815;-66
2023/07/13 10:04:03;;;;;;;3.43;1.57;;;26.70;41.30;;;;;;5015449;28;20469;-73
2023/07/13 10:06:31;;;;;;;1.93;1.60;;;26.70;41.00;;;;;;5004324;28;21086;-72
2023/07/13 10:08:59;;;;;;;3.50;1.70;;;26.70;40.60;;;;;;4982546;28;21072;-68
2023/07/13 10:11:30;;;;;;;2.30;1.37;;;26.70;40.80;;;;;;5001110;28;20443;-68
2023/07/13 10:14:01;;;;;;;3.70;1.30;;;26.70;40.70;;;;;;5005095;28;20484;-68
2023/07/13 10:16:33;;;;;;;2.20;1.37;;;26.70;41.10;;;;;;5002108;28;20476;-68
2023/07/13 10:19:08;;;;;;;2.20;1.43;;;26.70;41.00;;;;;;5005399;28;20459;-66
2023/07/13 10:21:48;;;;;;;1.60;1.30;;;26.70;40.80;;;;;;5012705;28;20530;-68
2023/07/13 10:24:19;;;;;;;2.50;1.23;;;26.70;40.80;;;;;;4999552;28;20513;-66
2023/07/13 10:26:55;;;;;;;2.17;1.50;;;26.70;41.10;;;;;;5006740;28;20476;-66
2023/07/13 10:29:26;;;;;;;1.87;1.63;;;26.70;41.30;;;;;;5007265;28;20462;-66
2023/07/13 10:31:57;;;;;;;3.80;1.67;;;26.70;40.80;;;;;;5003626;28;20456;-73
2023/07/13 10:34:26;;;;;;;2.40;2.00;;;26.70;40.60;;;;;;5006188;28;20751;-72
2023/07/13 10:36:55;;;;;;;2.20;1.27;;;26.70;41.10;;;;;;5006130;28;20425;-74
2023/07/13 10:39:28;;;;;;;2.73;1.30;;;26.70;41.00;;;;;;4998150;28;20460;-74
2023/07/13 10:42:00;;;;;;;2.17;1.47;;;26.70;41.30;;;;;;5002003;28;20444;-74
2023/07/13 10:44:31;;;;;;;2.90;1.40;;;26.70;41.30;;;;;;4981496;28;20454;-72
2023/07/13 10:47:04;;;;;;;2.03;1.57;;;26.70;41.10;;;;;;5001574;28;20982;-74
2023/07/13 10:49:35;;;;;;;1.50;1.20;;;26.70;41.10;;;;;;5003570;28;20461;-74
2023/07/13 10:52:04;;;;;;;2.60;1.43;;;26.70;41.00;;;;;;5006144;28;20505;-74
2023/07/13 10:54:34;;;;;;;2.80;1.50;;;26.70;41.30;;;;;;5005817;28;20460;-74
2023/07/13 10:57:20;;;;;;;1.93;1.20;;;26.70;41.50;;;;;;5008064;28;20458;-74
2023/07/13 11:00:09;;;;;;;1.30;1.20;;;26.70;41.50;;;;;;5012178;28;20451;-74
2023/07/13 11:02:42;;;;;;;1.83;1.17;;;26.70;41.10;;;;;;5006086;28;20574;-74
2023/07/13 11:05:27;;;;;;;2.53;1.50;;;26.70;41.40;;;;;;5004730;28;20506;-74
2023/07/13 11:08:04;;;;;;;1.80;1.40;;;26.70;41.20;;;;;;5003914;28;21165;-74
2023/07/13 11:10:49;;;;;;;2.73;1.50;;;26.70;41.60;;;;;;5008922;28;20486;-74
2023/07/13 11:13:37;;;;;;;1.77;1.10;;;26.70;41.30;;;;;;5007529;28;20519;-74
2023/07/13 11:16:14;;;;;;;2.00;1.40;;;26.70;41.60;;;;;;5007943;28;20495;-74
2023/07/13 11:18:46;;;;;;;2.93;1.23;;;26.70;41.60;;;;;;4997903;28;20865;-74
2023/07/13 11:21:16;;;;;;;2.53;1.10;;;26.70;41.60;;;;;;5008506;28;20939;-68
2023/07/13 11:24:05;;;;;;;1.53;1.10;;;26.70;41.40;;;;;;4999310;28;20862;-68
2023/07/13 11:26:41;;;;;;;2.00;1.20;;;26.70;41.60;;;;;;5008319;28;20435;-68
2023/07/13 11:29:24;;;;;;;1.83;1.40;;;26.70;41.50;;;;;;5008456;28;20459;-68
2023/07/13 11:31:55;;;;;;;1.27;1.17;;;26.70;41.40;;;;;;4998865;28;20502;-68
2023/07/13 11:34:31;;;;;;;2.23;1.30;;;26.70;41.80;;;;;;5016565;28;20478;-68
2023/07/13 11:37:04;;;;;;;3.30;1.37;;;26.70;41.70;;;;;;5000298;28;20451;-68
2023/07/13 11:39:36;;;;;;;2.87;1.60;;;26.70;41.90;;;;;;4998152;28;20469;-65
2023/07/13 11:42:17;;;;;;;3.60;1.63;;;26.70;41.60;;;;;;5015105;28;20469;-68
2023/07/13 11:44:48;;;;;;;2.63;1.20;;;26.70;41.80;;;;;;5006413;28;20555;-68
2023/07/13 11:47:35;;;;;;;2.40;1.60;;;26.70;41.90;;;;;;5004427;28;20642;-68
2023/07/13 11:50:06;;;;;;;2.60;1.53;;;26.70;42.20;;;;;;5005423;28;20444;-68
2023/07/13 11:52:37;;;;;;;3.20;1.73;;;26.70;41.60;;;;;;5013107;28;20490;-69
2023/07/13 11:55:15;;;;;;;1.70;1.10;;;26.70;41.50;;;;;;5006992;28;20568;-68
2023/07/13 11:57:50;;;;;;;2.20;1.20;;;26.70;40.50;;;;;;5007058;28;20451;-69
2023/07/13 12:00:23;;;;;;;1.93;1.33;;;26.60;40.70;;;;;;5002289;28;20446;-68
2023/07/13 12:02:56;;;;;;;2.53;1.10;;;26.60;41.70;;;;;;5003368;28;20483;-68
2023/07/13 12:05:26;;;;;;;1.40;1.20;;;26.60;41.80;;;;;;5008537;28;21007;-68
2023/07/13 12:07:55;;;;;;;2.30;1.50;;;26.60;41.70;;;;;;5000481;28;20456;-69
2023/07/13 12:10:25;;;;;;;1.50;1.40;;;26.60;41.60;;;;;;5007836;28;20444;-68
2023/07/13 12:12:56;;;;;;;2.60;1.30;;;26.70;41.40;;;;;;5007333;28;21056;-68
2023/07/13 12:15:31;;;;;;;2.40;1.50;;;26.60;41.40;;;;;;5005880;28;20496;-69
2023/07/13 12:18:00;;;;;;;3.43;1.43;;;26.60;41.50;;;;;;5006374;28;20521;-69
2023/07/13 12:20:38;;;;;;;1.53;1.30;;;26.60;41.60;;;;;;5008118;28;20532;-69
2023/07/13 12:23:12;;;;;;;1.40;0.90;;;26.60;41.60;;;;;;5006578;28;20487;-68
2023/07/13 12:25:40;;;;;;;1.53;1.43;;;26.70;41.90;;;;;;5008477;28;20471;-68
2023/07/13 12:28:22;;;;;;;1.70;1.27;;;26.70;41.80;;;;;;5007011;28;20464;-68
2023/07/13 12:30:58;;;;;;;1.90;1.57;;;26.70;41.60;;;;;;5002609;28;20450;-68
2023/07/13 12:33:29;;;;;;;2.53;1.13;;;26.70;41.90;;;;;;4986622;28;20913;-67
2023/07/13 12:36:02;;;;;;;2.47;1.43;;;26.60;41.60;;;;;;5007576;28;20487;-67
2023/07/13 12:38:32;;;;;;;3.53;1.27;;;26.60;41.20;;;;;;5005381;28;20498;-68
2023/07/13 12:41:03;;;;;;;1.50;1.40;;;26.60;41.30;;;;;;5007055;28;20764;-68
2023/07/13 12:43:38;;;;;;;3.53;1.20;;;26.70;41.80;;;;;;5001031;28;20515;-67
2023/07/13 12:46:20;;;;;;;2.87;1.50;;;26.70;41.70;;;;;;5001080;28;20534;-68
2023/07/13 12:48:50;;;;;;;1.43;1.17;;;26.60;41.60;;;;;;5007131;28;20466;-68
2023/07/13 12:51:33;;;;;;;1.70;1.37;;;26.70;41.30;;;;;;5008447;28;20435;-68
2023/07/13 12:54:14;;;;;;;1.60;1.00;;;26.70;41.40;;;;;;5003087;28;20485;-69
2023/07/13 12:56:42;;;;;;;1.40;1.30;;;26.70;41.80;;;;;;5006360;28;20472;-68
2023/07/13 12:59:18;;;;;;;1.43;1.33;;;26.70;41.60;;;;;;5014904;28;21002;-68
2023/07/13 13:01:49;;;;;;;2.33;1.63;;;26.70;41.80;;;;;;5005008;28;20947;-68
2023/07/13 13:04:21;;;;;;;2.17;1.27;;;26.70;41.50;;;;;;5012907;28;20481;-68
2023/07/13 13:07:02;;;;;;;3.70;1.13;;;26.70;41.30;;;;;;5005146;28;20963;-68
2023/07/13 13:09:31;;;;;;;1.63;1.00;;;26.70;41.70;;;;;;5002456;28;20463;-68